Cordell Hull Observed Data For Previous 48 Hours

Caption
Day and Hour Reservoir Elevation (behind dam)* Tailwater Elevation (below dam)* Average Hourly Discharge*
3/18/2019 1 AM CDT 499.91 468.81 52,085
3/18/2019 2 AM CDT 499.86 468.86 51,225
3/18/2019 3 AM CDT 499.82 468.82 51,725
3/18/2019 4 AM CDT 499.78 468.78 51,225
3/18/2019 5 AM CDT 499.73 468.83 51,335
3/18/2019 6 AM CDT 499.67 468.77 50,325
3/18/2019 7 AM CDT 499.61 468.71 50,325
3/18/2019 8 AM CDT 499.57 468.67 51,335
3/18/2019 9 AM CDT 499.51 468.71 50,425
3/18/2019 10 AM CDT 499.47 468.67 51,445
3/18/2019 11 AM CDT 499.54 468.04 48,810
3/18/2019 12 PM CDT 499.58 467.88 45,930
3/18/2019 1 PM CDT 499.59 467.69 46,150
3/18/2019 2 PM CDT 499.58 467.58 46,010
3/18/2019 3 PM CDT 499.61 467.61 46,510
3/18/2019 4 PM CDT 499.60 467.50 46,370
3/18/2019 5 PM CDT 499.62 467.42 46,230
3/18/2019 6 PM CDT 499.60 467.50 46,370
3/18/2019 7 PM CDT 499.60 467.40 46,230
3/18/2019 8 PM CDT 499.63 467.33 46,090
3/18/2019 9 PM CDT 499.62 467.32 45,590
3/18/2019 10 PM CDT 499.62 467.32 47,020
3/18/2019 11 PM CDT 499.62 467.32 46,090
3/19/2019 12 AM CDT 499.62 467.32 46,090
3/19/2019 1 AM CDT 499.62 467.32 46,090
3/19/2019 2 AM CDT 499.62 467.22 45,950
3/19/2019 3 AM CDT 499.63 467.23 45,950
3/19/2019 4 AM CDT 499.62 467.12 45,810
3/19/2019 5 AM CDT 499.63 467.13 45,810
3/19/2019 6 AM CDT 499.63 467.13 45,810
3/19/2019 7 AM CDT 499.62 467.12 46,310
3/19/2019 8 AM CDT 499.60 467.10 46,760
3/19/2019 9 AM CDT 499.60 467.10 46,810
3/19/2019 10 AM CDT 499.62 467.02 46,630
3/19/2019 11 AM CDT 499.61 467.01 45,670
3/19/2019 12 PM CDT 499.60 467.10 46,760
3/19/2019 1 PM CDT 499.62 467.02 46,170
3/19/2019 2 PM CDT 499.60 467.00 46,170
3/19/2019 3 PM CDT 499.62 467.02 45,670
3/19/2019 4 PM CDT 499.63 467.03 46,670
3/19/2019 5 PM CDT 499.62 466.92 45,530
3/19/2019 6 PM CDT 499.62 466.92 46,530
3/19/2019 7 PM CDT 499.62 466.82 47,790
3/19/2019 8 PM CDT 499.60 466.90 47,430
3/19/2019 9 PM CDT 499.64 466.84 47,290
3/19/2019 10 PM CDT 499.63 466.83 46,870
3/19/2019 11 PM CDT 499.64 466.84 46,870
3/20/2019 12 AM CDT 499.63 466.83 46,870
3/20/2019 1 AM CDT 499.62 466.62 46,110
3/20/2019 2 AM CDT 499.63 466.73 46,250
3/20/2019 3 AM CDT 499.62 466.72 46,740
3/20/2019 4 AM CDT 499.63 466.73 46,740
3/20/2019 5 AM CDT 499.64 466.74 46,740
3/20/2019 6 AM CDT 499.65 466.75 46,740

Elevations are in feet above sea level. Discharges are in cubic feet per second and are reported at the end of the hour.